createdAt,value
2022-09-20T00:01:12.181Z,94978.05
2022-09-20T00:03:43.262Z,94974.16
2022-09-20T00:06:12.795Z,94972.52
2022-09-20T00:08:40.069Z,94973.71
2022-09-20T00:11:09.638Z,94971.53
2022-09-20T00:13:37.470Z,94972.80
2022-09-20T00:16:13.514Z,94978.86
2022-09-20T00:18:41.064Z,94990.55
2022-09-20T00:21:07.761Z,94987.54
2022-09-20T00:23:34.265Z,94989.95
2022-09-20T00:26:03.642Z,94989.13
2022-09-20T00:28:31.262Z,94990.11
2022-09-20T00:30:57.591Z,94997.98
2022-09-20T00:33:45.172Z,95000.66
2022-09-20T00:36:11.411Z,95003.34
2022-09-20T00:38:37.948Z,95004.31
2022-09-20T00:41:04.260Z,94999.30
2022-09-20T00:43:45.799Z,95001.07
2022-09-20T00:46:21.882Z,94997.21
2022-09-20T00:48:55.875Z,94997.56
2022-09-20T00:51:28.668Z,94989.20
2022-09-20T00:53:58.668Z,94989.05
2022-09-20T00:56:31.012Z,95001.83
2022-09-20T00:59:03.810Z,94997.16
2022-09-20T01:01:31.654Z,95001.67
2022-09-20T01:03:59.182Z,94998.63
2022-09-20T01:06:25.336Z,94991.76
2022-09-20T01:08:55.876Z,94992.77
2022-09-20T01:11:22.028Z,94998.43
2022-09-20T01:13:48.115Z,94991.85
2022-09-20T01:16:17.211Z,94984.41
2022-09-20T01:18:44.808Z,94970.46
2022-09-20T01:21:11.680Z,94951.79
2022-09-20T01:23:50.053Z,94948.81
2022-09-20T01:26:50.994Z,94953.79
2022-09-20T01:29:30.788Z,94966.92
2022-09-20T01:32:02.556Z,94975.19
2022-09-20T01:34:37.094Z,94974.89
2022-09-20T01:37:19.194Z,94980.66
2022-09-20T01:39:56.823Z,94974.65
2022-09-20T01:42:31.736Z,94971.13
2022-09-20T01:45:07.030Z,94967.53
2022-09-20T01:47:45.355Z,94961.22
2022-09-20T01:50:34.784Z,94964.60
2022-09-20T01:53:45.881Z,94971.34
2022-09-20T01:56:27.053Z,94969.63
2022-09-20T01:59:24.518Z,94970.46
2022-09-20T02:01:50.946Z,94977.89
2022-09-20T02:04:35.509Z,94975.68
2022-09-20T02:07:07.624Z,94983.73
2022-09-20T02:10:08.364Z,94983.05
2022-09-20T02:12:43.002Z,94979.39
2022-09-20T02:15:11.896Z,94974.90
2022-09-20T02:17:40.546Z,94973.00
2022-09-20T02:20:32.863Z,94968.70
2022-09-20T02:23:29.233Z,94956.72
2022-09-20T02:26:46.415Z,94956.33
2022-09-20T02:29:45.569Z,94955.98
2022-09-20T02:32:11.583Z,94960.66
2022-09-20T02:35:16.214Z,94962.12
2022-09-20T02:37:55.108Z,94960.74
2022-09-20T02:40:35.283Z,94966.16
2022-09-20T02:43:18.179Z,94962.64
2022-09-20T02:46:23.190Z,94964.25
2022-09-20T02:49:07.991Z,94961.95
2022-09-20T02:52:10.468Z,94967.81
2022-09-20T02:54:48.732Z,94969.73
2022-09-20T02:57:36.216Z,94973.52
2022-09-20T03:00:09.886Z,94977.38
2022-09-20T03:03:01.779Z,94979.61
2022-09-20T03:05:58.302Z,94980.37
2022-09-20T03:08:24.310Z,94981.27
2022-09-20T03:11:12.194Z,94976.67
2022-09-20T03:14:13.564Z,94971.96
2022-09-20T03:17:01.890Z,94973.05
2022-09-20T03:19:58.078Z,94969.96
2022-09-20T03:22:30.248Z,94970.98
2022-09-20T03:24:56.256Z,94976.26
2022-09-20T03:27:54.172Z,94974.58
2022-09-20T03:30:32.416Z,94974.34
2022-09-20T03:33:33.502Z,94978.62
2022-09-20T03:36:08.064Z,94983.86
2022-09-20T03:39:10.669Z,94988.27
2022-09-20T03:41:50.068Z,94984.92
2022-09-20T03:44:50.268Z,94984.83
2022-09-20T03:47:43.005Z,94983.96
2022-09-20T03:50:15.048Z,94979.64
2022-09-20T03:52:41.151Z,94987.74
2022-09-20T03:55:10.173Z,94989.40
2022-09-20T03:57:42.078Z,94985.26
2022-09-20T04:00:08.109Z,94989.23
2022-09-20T04:03:11.723Z,94992.58
2022-09-20T04:06:08.992Z,94997.10
2022-09-20T04:09:12.644Z,94999.47
2022-09-20T04:12:22.153Z,94999.13
2022-09-20T04:15:26.039Z,94995.95
2022-09-20T04:18:02.631Z,94999.76
2022-09-20T04:21:23.372Z,95001.22
2022-09-20T04:23:49.365Z,95002.09
2022-09-20T04:26:24.291Z,95004.20
2022-09-20T04:28:58.537Z,95002.43
2022-09-20T04:31:37.163Z,95001.76
2022-09-20T04:34:11.695Z,95002.89
2022-09-20T04:36:57.637Z,95006.85
2022-09-20T04:39:50.034Z,95005.73
2022-09-20T04:42:46.883Z,95008.61
2022-09-20T04:45:38.706Z,95014.90
2022-09-20T04:48:42.438Z,95024.20
2022-09-20T04:51:26.931Z,95023.70
2022-09-20T04:54:21.069Z,95026.38
2022-09-20T04:56:59.258Z,95025.33
2022-09-20T04:59:31.838Z,95031.01
2022-09-20T05:02:34.952Z,95035.92
2022-09-20T05:05:28.199Z,95036.11
2022-09-20T05:08:22.093Z,95033.45
2022-09-20T05:11:01.138Z,95034.28
2022-09-20T05:13:55.338Z,95029.73
2022-09-20T05:16:45.067Z,95025.14
2022-09-20T05:19:31.184Z,95023.71
2022-09-20T05:22:24.897Z,95024.16
2022-09-20T05:25:19.547Z,95021.84
2022-09-20T05:28:23.570Z,95025.36
2022-09-20T05:30:55.568Z,95031.50
2022-09-20T05:33:56.081Z,95030.45
2022-09-20T05:36:45.205Z,95034.66
2022-09-20T05:39:32.418Z,95039.65
2022-09-20T05:42:16.263Z,95044.90
2022-09-20T05:45:02.714Z,95044.73
2022-09-20T05:47:40.057Z,95042.20
2022-09-20T05:50:27.988Z,95043.03
2022-09-20T05:53:05.769Z,95042.45
2022-09-20T05:56:15.040Z,95043.11
2022-09-20T05:58:57.801Z,95039.80
2022-09-20T06:01:50.745Z,95038.83
2022-09-20T06:04:28.957Z,95034.06
2022-09-20T06:07:12.365Z,95034.15
2022-09-20T06:09:59.916Z,95035.02
2022-09-20T06:12:50.104Z,95035.35
2022-09-20T06:15:24.165Z,95037.39
2022-09-20T06:18:09.322Z,95039.54
2022-09-20T06:20:47.864Z,95037.05
2022-09-20T06:23:14.636Z,95035.55
2022-09-20T06:25:57.099Z,95029.80
2022-09-20T06:28:29.523Z,95035.88
2022-09-20T06:30:56.773Z,95039.04
2022-09-20T06:33:25.526Z,95042.18
2022-09-20T06:36:52.102Z,95044.70
2022-09-20T06:40:04.419Z,95044.61
2022-09-20T06:42:30.699Z,95042.34
2022-09-20T06:44:56.964Z,95041.27
2022-09-20T06:47:23.145Z,95041.33
2022-09-20T06:49:50.050Z,95035.34
2022-09-20T06:52:22.973Z,95031.45
2022-09-20T06:54:55.169Z,95031.38
2022-09-20T06:57:34.881Z,95038.54
2022-09-20T07:00:02.057Z,95037.59
2022-09-20T07:02:28.199Z,95038.33
2022-09-20T07:04:54.925Z,95039.80
2022-09-20T07:07:21.059Z,95041.95
2022-09-20T07:09:47.903Z,95037.98
2022-09-20T07:12:13.966Z,95038.97
2022-09-20T07:14:40.191Z,95039.79
2022-09-20T07:17:07.025Z,95038.14
2022-09-20T07:19:36.413Z,95040.27
2022-09-20T07:22:03.005Z,95037.25
2022-09-20T07:24:31.694Z,95036.92
2022-09-20T07:27:02.199Z,95036.73
2022-09-20T07:29:29.055Z,95034.10
2022-09-20T07:31:56.338Z,95036.40
2022-09-20T07:34:22.549Z,95047.67
2022-09-20T07:36:49.842Z,95049.57
2022-09-20T07:39:17.025Z,95041.88
2022-09-20T07:41:48.647Z,95044.33
2022-09-20T07:44:21.649Z,95043.23
2022-09-20T07:46:49.022Z,95035.55
2022-09-20T07:49:15.245Z,95042.95
2022-09-20T07:51:41.425Z,95041.35
2022-09-20T07:54:07.514Z,95047.37
2022-09-20T07:56:33.759Z,95043.00
2022-09-20T07:58:59.915Z,95040.65
2022-09-20T08:01:26.168Z,95041.08
2022-09-20T08:03:52.393Z,95044.86
2022-09-20T08:06:21.005Z,95050.36
2022-09-20T08:08:47.117Z,95045.63
2022-09-20T08:11:16.593Z,95042.52
2022-09-20T08:16:41.249Z,95053.21
2022-09-20T08:19:07.859Z,95054.77
2022-09-20T08:21:35.218Z,95046.33
2022-09-20T08:24:01.645Z,95043.38
2022-09-20T08:26:30.663Z,95045.05
2022-09-20T08:28:59.678Z,95041.91
2022-09-20T08:31:30.992Z,95045.00
2022-09-20T08:33:58.457Z,95041.19
2022-09-20T08:36:25.830Z,95039.53
2022-09-20T08:41:48.203Z,95035.10
2022-09-20T08:44:45.306Z,95032.46
2022-09-20T08:47:15.449Z,95023.88
2022-09-20T08:49:46.019Z,95020.48
2022-09-20T08:52:20.608Z,95022.80
2022-09-20T08:54:46.933Z,95027.23
2022-09-20T08:57:20.091Z,95027.91
2022-09-20T08:59:46.512Z,95026.77
2022-09-20T09:02:22.268Z,95022.31
2022-09-20T09:04:49.496Z,95015.05
2022-09-20T09:07:21.320Z,95015.66
2022-09-20T09:09:51.419Z,95017.02
2022-09-20T09:12:24.480Z,95017.00
2022-09-20T09:14:58.863Z,95012.62
2022-09-20T09:17:30.687Z,95017.40
2022-09-20T09:19:59.171Z,95013.33
2022-09-20T09:22:40.590Z,95002.20
2022-09-20T09:25:33.967Z,95004.05
2022-09-20T09:28:06.971Z,94995.71
2022-09-20T09:30:36.764Z,94996.02
2022-09-20T09:33:28.735Z,94992.55
2022-09-20T09:36:03.904Z,94986.90
2022-09-20T09:38:36.196Z,94988.38
2022-09-20T09:41:05.379Z,94987.41
2022-09-20T09:43:35.122Z,94990.08
2022-09-20T09:46:18.085Z,94991.33
2022-09-20T09:48:49.305Z,94985.02
2022-09-20T09:51:18.011Z,94976.44
2022-09-20T09:53:45.943Z,94981.22
2022-09-20T09:56:21.126Z,94975.42
2022-09-20T09:59:10.039Z,94971.34
2022-09-20T10:01:59.305Z,94971.42
2022-09-20T10:04:32.955Z,94965.42
2022-09-20T10:07:05.605Z,94970.63
2022-09-20T10:09:51.586Z,94965.12
2022-09-20T10:12:25.879Z,94973.24
2022-09-20T10:15:22.522Z,94966.36
2022-09-20T10:18:02.545Z,94965.13
2022-09-20T10:20:33.118Z,94963.98
2022-09-20T10:24:03.264Z,94957.27
2022-09-20T10:26:28.048Z,94961.84
2022-09-20T10:29:07.869Z,94962.08
2022-09-20T10:32:08.823Z,94956.45
2022-09-20T10:34:53.309Z,94956.58
2022-09-20T10:37:41.085Z,94952.81
2022-09-20T10:40:49.235Z,94957.30
2022-09-20T10:43:41.411Z,94960.80
2022-09-20T10:46:32.229Z,94955.96
2022-09-20T10:49:39.606Z,94953.41
2022-09-20T10:52:31.188Z,94950.77
2022-09-20T10:55:03.147Z,94945.20
2022-09-20T10:57:55.881Z,94943.75
2022-09-20T11:01:02.934Z,94937.52
2022-09-20T11:04:01.591Z,94928.55
2022-09-20T11:06:33.621Z,94932.02
2022-09-20T11:09:03.373Z,94930.09
2022-09-20T11:11:37.200Z,94927.88
2022-09-20T11:14:20.831Z,94917.46
2022-09-20T11:17:11.447Z,94916.33
2022-09-20T11:19:47.958Z,94914.77
2022-09-20T11:22:45.168Z,94911.63
2022-09-20T11:25:30.116Z,94911.23
2022-09-20T11:28:18.101Z,94909.99
2022-09-20T11:31:12.112Z,94905.91
2022-09-20T11:33:55.210Z,94908.73
2022-09-20T11:36:39.652Z,94903.80
2022-09-20T11:39:21.719Z,94903.25
2022-09-20T11:41:51.773Z,94900.02
2022-09-20T11:44:19.526Z,94900.67
2022-09-20T11:46:54.429Z,94894.46
2022-09-20T11:49:26.413Z,94895.48
2022-09-20T11:51:52.487Z,94889.77
2022-09-20T11:54:57.778Z,94891.82
2022-09-20T11:57:24.760Z,94882.98
2022-09-20T12:00:04.632Z,94885.12
2022-09-20T12:02:49.413Z,94887.17
2022-09-20T12:05:43.451Z,94885.83
2022-09-20T12:08:42.218Z,94885.80
2022-09-20T12:11:11.852Z,94890.85
2022-09-20T12:13:41.262Z,94888.94
2022-09-20T12:16:11.968Z,94887.95
2022-09-20T12:19:07.385Z,94891.30
2022-09-20T12:21:58.397Z,94888.77
2022-09-20T12:24:35.254Z,94888.52
2022-09-20T12:27:20.491Z,94888.87
2022-09-20T12:29:47.642Z,94887.09
2022-09-20T12:32:32.380Z,94892.18
2022-09-20T12:34:58.548Z,94888.41
2022-09-20T12:37:25.939Z,94885.89
2022-09-20T12:39:55.177Z,94885.17
2022-09-20T12:42:28.309Z,94882.23
2022-09-20T12:45:03.403Z,94887.31
2022-09-20T12:47:37.680Z,94882.95
2022-09-20T12:50:32.526Z,94881.47
2022-09-20T12:53:06.649Z,94880.27
2022-09-20T12:56:03.878Z,94882.99
2022-09-20T12:58:53.101Z,94881.73
2022-09-20T13:01:22.693Z,94877.65
2022-09-20T13:03:50.817Z,94878.21
2022-09-20T13:06:19.084Z,94872.36
2022-09-20T13:09:13.641Z,94874.60
2022-09-20T13:11:45.142Z,94876.14
2022-09-20T13:14:17.559Z,94875.52
2022-09-20T13:16:50.020Z,94873.96
2022-09-20T13:19:20.736Z,94867.87
2022-09-20T13:22:27.765Z,94868.22
2022-09-20T13:25:00.789Z,94863.38
2022-09-20T13:27:47.390Z,94858.23
2022-09-20T13:30:17.129Z,94853.86
2022-09-20T13:32:44.385Z,94853.88
2022-09-20T13:35:10.468Z,94855.31
2022-09-20T13:37:49.707Z,94850.09
2022-09-20T13:40:32.756Z,94850.61
2022-09-20T13:43:23.596Z,94848.78
2022-09-20T13:45:57.118Z,94843.77
2022-09-20T13:48:28.843Z,94835.55
2022-09-20T13:50:56.111Z,94837.52
2022-09-20T13:53:40.474Z,94833.97
2022-09-20T13:56:23.944Z,94836.27
2022-09-20T13:58:50.996Z,94835.94
2022-09-20T14:01:33.120Z,94836.59
2022-09-20T14:04:08.704Z,94829.38
2022-09-20T14:06:35.622Z,94830.75
2022-09-20T14:09:10.444Z,94828.33
2022-09-20T14:11:38.117Z,94825.99
2022-09-20T14:14:07.483Z,94828.47
2022-09-20T14:16:38.589Z,94825.86
2022-09-20T14:19:09.639Z,94824.70
2022-09-20T14:21:36.978Z,94821.88
2022-09-20T14:24:04.379Z,94821.39
2022-09-20T14:26:35.918Z,94821.73
2022-09-20T14:29:33.290Z,94821.92
2022-09-20T14:32:15.289Z,94816.54
2022-09-20T14:34:47.052Z,94815.94
2022-09-20T14:37:25.769Z,94815.39
2022-09-20T14:39:58.036Z,94813.91
2022-09-20T14:42:40.749Z,94814.15
2022-09-20T14:45:10.941Z,94815.47
2022-09-20T14:47:50.156Z,94808.08
2022-09-20T14:50:28.138Z,94812.15
2022-09-20T14:53:21.005Z,94812.60
2022-09-20T14:56:09.048Z,94815.61
2022-09-20T14:59:20.662Z,94812.52
2022-09-20T15:02:15.175Z,94814.58
2022-09-20T15:04:54.646Z,94813.05
2022-09-20T15:07:21.159Z,94812.02
2022-09-20T15:09:48.400Z,94814.95
2022-09-20T15:12:20.858Z,94816.73
2022-09-20T15:14:48.163Z,94808.91
2022-09-20T15:17:21.768Z,94810.52
2022-09-20T15:19:48.985Z,94808.90
2022-09-20T15:22:15.420Z,94802.58
2022-09-20T15:24:42.487Z,94807.52
2022-09-20T15:27:11.439Z,94807.85
2022-09-20T15:29:37.583Z,94806.52
2022-09-20T15:32:05.348Z,94806.36
2022-09-20T15:34:32.281Z,94805.98
2022-09-20T15:36:58.388Z,94807.27
2022-09-20T15:39:25.415Z,94804.25
2022-09-20T15:41:52.566Z,94803.20
2022-09-20T15:44:19.340Z,94804.14
2022-09-20T15:46:46.143Z,94803.61
2022-09-20T15:49:12.365Z,94795.95
2022-09-20T15:51:38.904Z,94795.95
2022-09-20T15:54:12.674Z,94797.06
2022-09-20T15:56:39.940Z,94797.36
2022-09-20T15:59:08.597Z,94795.53
2022-09-20T16:01:39.156Z,94797.81
2022-09-20T16:04:28.693Z,94797.09
2022-09-20T16:06:55.066Z,94797.77
2022-09-20T16:09:21.358Z,94800.99
2022-09-20T16:11:47.920Z,94806.15
2022-09-20T16:14:14.539Z,94802.66
2022-09-20T16:16:41.033Z,94806.88
2022-09-20T16:19:21.849Z,94805.27
2022-09-20T16:21:57.366Z,94809.33
2022-09-20T16:24:34.527Z,94811.48
2022-09-20T16:27:02.544Z,94810.17
2022-09-20T16:29:30.464Z,94814.30
2022-09-20T16:31:58.164Z,94814.88
2022-09-20T16:34:35.669Z,94814.87
2022-09-20T16:37:09.891Z,94818.23
2022-09-20T16:39:36.049Z,94820.34
2022-09-20T16:42:05.124Z,94826.60
2022-09-20T16:44:36.580Z,94828.84
2022-09-20T16:47:07.614Z,94825.81
2022-09-20T16:49:36.051Z,94824.48
2022-09-20T16:52:04.864Z,94825.12
2022-09-20T16:54:32.071Z,94831.45
2022-09-20T16:56:58.583Z,94838.65
2022-09-20T16:59:24.759Z,94837.95
2022-09-20T17:01:51.201Z,94839.94
2022-09-20T17:04:19.712Z,94846.91
2022-09-20T17:06:47.525Z,94849.29
2022-09-20T17:09:15.078Z,94854.27
2022-09-20T17:11:46.760Z,94856.73
2022-09-20T17:14:13.570Z,94862.88
2022-09-20T17:16:41.757Z,94868.14
2022-09-20T17:19:10.919Z,94869.52
2022-09-20T17:21:40.162Z,94870.88
2022-09-20T17:24:06.807Z,94873.48
2022-09-20T17:26:36.296Z,94876.29
2022-09-20T17:29:07.494Z,94874.67
2022-09-20T17:31:36.238Z,94870.75
2022-09-20T17:34:06.611Z,94870.10
2022-09-20T17:36:39.195Z,94873.86
2022-09-20T17:39:11.731Z,94878.63
2022-09-20T17:41:44.398Z,94873.04
2022-09-20T17:44:11.593Z,94876.67
2022-09-20T17:46:40.013Z,94875.56
2022-09-20T17:49:08.896Z,94877.52
2022-09-20T17:51:38.744Z,94875.90
2022-09-20T17:54:06.011Z,94879.81
2022-09-20T17:56:33.037Z,94878.76
2022-09-20T17:59:01.076Z,94882.13
2022-09-20T18:01:28.855Z,94881.58
2022-09-20T18:03:58.196Z,94883.73
2022-09-20T18:06:34.977Z,94886.35
2022-09-20T18:09:07.195Z,94882.66
2022-09-20T18:11:43.667Z,94887.80
2022-09-20T18:14:10.078Z,94890.75
2022-09-20T18:16:37.922Z,94893.23
2022-09-20T18:19:08.682Z,94900.30
2022-09-20T18:21:36.750Z,94902.23
2022-09-20T18:24:08.051Z,94905.42
2022-09-20T18:26:35.803Z,94903.58
2022-09-20T18:29:12.363Z,94904.61
2022-09-20T18:31:45.551Z,94902.90
2022-09-20T18:34:20.344Z,94906.17
2022-09-20T18:36:52.448Z,94905.33
2022-09-20T18:39:31.977Z,94910.42
2022-09-20T18:41:59.499Z,94912.23
2022-09-20T18:44:27.072Z,94914.16
2022-09-20T18:46:54.488Z,94913.20
2022-09-20T18:49:21.138Z,94915.79
2022-09-20T18:51:48.290Z,94919.10
2022-09-20T18:54:15.747Z,94917.43
2022-09-20T18:56:44.790Z,94918.90
2022-09-20T18:59:24.255Z,94919.19
2022-09-20T19:01:52.223Z,94920.42
2022-09-20T19:04:40.770Z,94920.99
2022-09-20T19:07:26.984Z,94919.92
2022-09-20T19:10:05.511Z,94923.69
2022-09-20T19:13:00.350Z,94923.02
2022-09-20T19:15:47.535Z,94926.19
2022-09-20T19:18:35.623Z,94929.08
2022-09-20T19:21:17.019Z,94933.83
2022-09-20T19:24:04.859Z,94943.36
2022-09-20T19:26:37.601Z,94946.38
2022-09-20T19:29:16.975Z,94948.44
2022-09-20T19:31:43.506Z,94947.93
2022-09-20T19:34:19.429Z,94950.13
2022-09-20T19:36:45.532Z,94951.83
2022-09-20T19:39:19.109Z,94952.61
2022-09-20T19:42:09.868Z,94948.64
2022-09-20T19:44:58.780Z,94954.08
2022-09-20T19:47:52.972Z,94952.91
2022-09-20T19:50:27.451Z,94952.81
2022-09-20T19:52:55.872Z,94956.02
2022-09-20T19:55:22.367Z,94955.35
2022-09-20T19:57:49.035Z,94953.80
2022-09-20T20:00:19.211Z,94951.84
2022-09-20T20:02:45.675Z,94951.92
2022-09-20T20:05:18.091Z,94955.77
2022-09-20T20:07:49.329Z,94954.91
2022-09-20T20:10:29.874Z,94963.07
2022-09-20T20:13:32.911Z,94963.42
2022-09-20T20:16:08.479Z,94954.02
2022-09-20T20:19:01.584Z,94959.25
2022-09-20T20:22:09.366Z,94962.34
2022-09-20T20:24:48.259Z,94962.94
2022-09-20T20:27:14.454Z,94963.23
2022-09-20T20:29:40.728Z,94964.77
2022-09-20T20:32:06.963Z,94964.76
2022-09-20T20:34:36.694Z,94965.84
2022-09-20T20:37:07.086Z,94965.13
2022-09-20T20:39:33.955Z,94967.86
2022-09-20T20:42:02.629Z,94965.09
2022-09-20T20:44:36.215Z,94964.16
2022-09-20T20:47:06.526Z,94965.07
2022-09-20T20:49:33.448Z,94962.34
2022-09-20T20:52:04.294Z,94963.82
2022-09-20T20:54:31.726Z,94961.50
2022-09-20T20:56:58.757Z,94959.05
2022-09-20T20:59:25.213Z,94961.10
2022-09-20T21:01:51.442Z,94961.83
2022-09-20T21:04:17.714Z,94967.52
2022-09-20T21:06:44.601Z,94972.85
2022-09-20T21:09:11.943Z,94968.50
2022-09-20T21:11:43.703Z,94977.30
2022-09-20T21:14:12.042Z,94978.08
2022-09-20T21:16:42.183Z,94983.69
2022-09-20T21:19:09.974Z,94986.76
2022-09-20T21:21:38.535Z,94986.53
2022-09-20T21:24:07.119Z,94988.98
2022-09-20T21:26:35.205Z,94991.58
2022-09-20T21:29:04.360Z,94988.88
2022-09-20T21:31:32.996Z,94989.46
2022-09-20T21:33:59.582Z,94989.81
2022-09-20T21:36:30.159Z,94988.13
2022-09-20T21:38:56.647Z,94987.55
2022-09-20T21:41:31.549Z,94984.52
2022-09-20T21:43:59.890Z,94987.07
2022-09-20T21:46:33.415Z,94989.92
2022-09-20T21:49:05.036Z,94991.17
2022-09-20T21:51:33.116Z,94988.64
2022-09-20T21:54:01.210Z,94989.91
2022-09-20T21:56:45.677Z,94994.45
2022-09-20T21:59:12.312Z,94994.67
2022-09-20T22:01:40.862Z,94994.70
2022-09-20T22:04:09.369Z,94995.50
2022-09-20T22:06:38.666Z,94995.12
2022-09-20T22:09:14.086Z,94996.48
2022-09-20T22:11:45.945Z,95003.34
2022-09-20T22:14:14.185Z,94999.97
2022-09-20T22:16:42.400Z,95004.52
2022-09-20T22:19:12.099Z,94998.98
2022-09-20T22:21:41.772Z,94999.41
2022-09-20T22:24:09.960Z,94996.48
2022-09-20T22:26:40.440Z,94994.26
2022-09-20T22:29:07.303Z,94992.04
2022-09-20T22:31:39.233Z,94988.27
2022-09-20T22:34:06.947Z,94991.51
2022-09-20T22:36:35.752Z,94993.81
2022-09-20T22:39:04.075Z,94990.83
2022-09-20T22:41:30.252Z,94997.08
2022-09-20T22:43:56.459Z,94994.32
2022-09-20T22:46:25.814Z,94997.23
2022-09-20T22:48:52.079Z,94999.69
2022-09-20T22:51:20.828Z,94998.72
2022-09-20T22:53:47.393Z,94995.66
2022-09-20T22:56:20.809Z,94993.61
2022-09-20T22:58:49.006Z,94999.25
2022-09-20T23:01:16.964Z,94998.30
2022-09-20T23:03:45.615Z,94999.35
2022-09-20T23:06:20.824Z,94997.73
2022-09-20T23:08:52.349Z,95002.66
2022-09-20T23:11:19.261Z,95003.52
2022-09-20T23:13:46.404Z,95002.94
2022-09-20T23:16:15.361Z,95005.84
2022-09-20T23:18:41.839Z,95009.45
2022-09-20T23:21:08.350Z,95005.84
2022-09-20T23:23:36.704Z,95003.30
2022-09-20T23:26:09.917Z,95007.18
2022-09-20T23:28:38.921Z,95003.63
2022-09-20T23:31:08.480Z,95002.61
2022-09-20T23:33:35.019Z,95000.70
2022-09-20T23:36:05.423Z,95006.08
2022-09-20T23:38:31.634Z,95006.02
2022-09-20T23:41:06.217Z,95005.75
2022-09-20T23:43:33.779Z,95009.04
2022-09-20T23:46:00.252Z,95005.84
2022-09-20T23:48:26.836Z,95003.80
2022-09-20T23:50:53.411Z,95003.31
2022-09-20T23:53:19.678Z,95005.71
2022-09-20T23:55:45.889Z,95002.77
2022-09-20T23:58:12.068Z,95001.77
